Terminal Aerodrome Forecast
Issued by NWS Amarillo, TX

Home | Current Version | Previous Version | Text Only | Print | Product List | Glossary On
Versions: 1 2 3 4 5 6 7 8 9 10 11 12 13 14
000
FTUS44 KAMA 272300
TAFGUY
TAF
KGUY 272330Z 2800/2824 20013KT P6SM VCTS BKN080CB BKN250
      TEMPO 2800/2802 VRB20G35KT -TSRA
     FM280600 13015KT P6SM VCSH BKN009
     FM281500 22014G20KT P6SM SCT020 BKN040 PROB30 2818/2823 -TSRA
      OVC040CB=

USA.gov is the U.S. government's official web portal to all federal, state and local government web resources and services.